Havensville, Kansas
Current Conditions -  °F | °C
As of 1:35 PM on Friday 31 Oct 2014 (Local Time) from KMYZ Reporting Station
Clear Clear  
Wind Chill: 37°   Ceiling: Unl
Heat Index: 43°   Visibility: 10mi
Dew Point: 19°   Wind: 10mph
Humidity: 39%   Direction: 30°NNE
Pressure: 30.52"   Gusts: NA
Location:  39.51°N, 96.08°W
Report Text: KMYZ 311835Z AUTO 03009KT 10SM CLR 06/M07 A3052 RMK AO2
Loading
Personal Weather Stations






























Interactive Weather Map
Tropical Storm Tracking
New forecast layout! Learn more

10-Day Weather Forecast

Advertisements
Track Severe Weather on mobile